createdAt,value
2024-02-27T00:01:09.841Z,1002.69
2024-02-27T00:06:13.983Z,1002.74
2024-02-27T00:11:18.124Z,1002.69
2024-02-27T00:16:22.262Z,1002.65
2024-02-27T00:21:26.580Z,1002.78
2024-02-27T00:26:30.574Z,1002.74
2024-02-27T00:31:34.760Z,1002.79
2024-02-27T00:36:38.956Z,1002.83
2024-02-27T00:41:43.133Z,1002.96
2024-02-27T00:46:45.413Z,1003.07
2024-02-27T00:51:49.510Z,1003.05
2024-02-27T00:56:53.867Z,1003.12
2024-02-27T01:01:57.853Z,1003.08
2024-02-27T01:07:02.165Z,1003.07
2024-02-27T01:12:06.265Z,1003.15
2024-02-27T01:17:10.359Z,1003.16
2024-02-27T01:22:14.503Z,1003.21
2024-02-27T01:27:18.725Z,1003.21
2024-02-27T01:32:22.801Z,1003.22
2024-02-27T01:37:26.997Z,1003.25
2024-02-27T01:42:31.189Z,1003.40
2024-02-27T01:47:35.379Z,1003.43
2024-02-27T01:52:39.481Z,1003.55
2024-02-27T01:57:43.691Z,1003.58
2024-02-27T02:02:47.825Z,1003.58
2024-02-27T02:07:51.946Z,1003.52
2024-02-27T02:12:56.169Z,1003.63
2024-02-27T02:18:00.467Z,1003.61
2024-02-27T02:23:04.479Z,1003.63
2024-02-27T02:28:08.624Z,1003.71
2024-02-27T02:33:13.094Z,1003.71
2024-02-27T02:38:16.945Z,1003.78
2024-02-27T02:43:21.147Z,1003.83
2024-02-27T02:48:25.418Z,1003.82
2024-02-27T02:53:29.433Z,1003.88
2024-02-27T02:58:33.606Z,1004.01
2024-02-27T03:03:37.794Z,1004.03
2024-02-27T03:08:41.910Z,1003.99
2024-02-27T03:13:46.105Z,1004.03
2024-02-27T03:18:50.336Z,1004.01
2024-02-27T03:23:54.434Z,1004.11
2024-02-27T03:28:58.627Z,1003.97
2024-02-27T03:34:02.813Z,1003.96
2024-02-27T03:39:06.946Z,1003.90
2024-02-27T03:44:11.070Z,1003.96
2024-02-27T03:49:15.331Z,1004.09
2024-02-27T03:54:19.427Z,1004.13
2024-02-27T03:59:23.585Z,1004.20
2024-02-27T04:04:27.720Z,1004.23
2024-02-27T04:09:32.012Z,1004.28
2024-02-27T04:14:36.074Z,1004.36
2024-02-27T04:19:40.388Z,1004.31
2024-02-27T04:24:44.390Z,1004.33
2024-02-27T04:29:48.583Z,1004.33
2024-02-27T04:34:52.704Z,1004.51
2024-02-27T04:39:56.860Z,1004.53
2024-02-27T04:45:01.056Z,1004.55
2024-02-27T04:50:05.205Z,1004.54
2024-02-27T04:55:09.392Z,1004.68
2024-02-27T05:00:13.560Z,1004.69
2024-02-27T05:05:17.794Z,1004.68
2024-02-27T05:10:21.896Z,1004.73
2024-02-27T05:15:26.078Z,1004.80
2024-02-27T05:20:30.211Z,1004.86
2024-02-27T05:25:34.371Z,1004.93
2024-02-27T05:30:38.561Z,1005.04
2024-02-27T05:40:46.940Z,1005.13
2024-02-27T05:45:51.050Z,1005.12
2024-02-27T05:50:55.189Z,1005.13
2024-02-27T05:55:59.344Z,1005.25
2024-02-27T06:01:03.598Z,1005.27
2024-02-27T06:06:07.901Z,1005.28
2024-02-27T06:11:11.844Z,1005.31
2024-02-27T06:16:14.082Z,1005.35
2024-02-27T06:21:18.321Z,1005.45
2024-02-27T06:26:22.418Z,1005.46
2024-02-27T06:31:26.596Z,1005.54
2024-02-27T06:36:30.779Z,1005.69
2024-02-27T06:41:34.944Z,1005.75
2024-02-27T06:46:37.188Z,1005.95
2024-02-27T06:51:41.386Z,1005.89
2024-02-27T06:56:45.539Z,1005.88
2024-02-27T07:01:49.708Z,1005.99
2024-02-27T07:06:53.918Z,1006.03
2024-02-27T07:11:58.101Z,1006.03
2024-02-27T07:17:02.204Z,1006.15
2024-02-27T07:22:06.345Z,1006.13
2024-02-27T07:27:10.584Z,1006.18
2024-02-27T07:32:14.651Z,1006.21
2024-02-27T07:37:18.836Z,1006.18
2024-02-27T07:42:23.052Z,1006.19
2024-02-27T07:47:27.185Z,1006.18
2024-02-27T07:52:31.346Z,1006.28
2024-02-27T07:57:35.522Z,1006.30
2024-02-27T08:02:39.647Z,1006.38
2024-02-27T08:07:43.822Z,1006.49
2024-02-27T08:12:47.990Z,1006.63
2024-02-27T08:17:52.190Z,1006.67
2024-02-27T08:22:56.339Z,1006.67
2024-02-27T08:28:00.540Z,1006.69
2024-02-27T08:33:04.752Z,1006.76
2024-02-27T08:38:10.302Z,1006.81
2024-02-27T08:43:12.942Z,1006.88
2024-02-27T08:48:19.215Z,1006.97
2024-02-27T08:53:21.296Z,1007.09
2024-02-27T08:58:25.461Z,1007.14
2024-02-27T09:03:29.689Z,1006.98
2024-02-27T09:08:33.795Z,1006.99
2024-02-27T09:13:37.998Z,1006.98
2024-02-27T09:18:42.336Z,1006.93
2024-02-27T09:23:46.277Z,1006.96
2024-02-27T09:28:50.424Z,1006.99
2024-02-27T09:33:54.659Z,1007.03
2024-02-27T09:38:58.737Z,1006.97
2024-02-27T09:44:02.953Z,1006.95
2024-02-27T09:49:07.289Z,1006.94
2024-02-27T09:54:11.249Z,1006.98
2024-02-27T09:59:15.411Z,1007.05
2024-02-27T10:04:19.622Z,1007.16
2024-02-27T10:09:23.792Z,1007.26
2024-02-27T10:14:27.929Z,1007.31
2024-02-27T10:19:32.234Z,1007.45
2024-02-27T10:24:36.405Z,1007.53
2024-02-27T10:29:41.581Z,1007.58
2024-02-27T10:34:44.768Z,1007.62
2024-02-27T10:39:48.728Z,1007.60
2024-02-27T10:44:52.867Z,1007.61
2024-02-27T10:49:57.173Z,1007.61
2024-02-27T10:55:01.230Z,1007.59
2024-02-27T11:00:05.447Z,1007.64
2024-02-27T11:05:09.643Z,1007.69
2024-02-27T11:10:13.697Z,1007.78
2024-02-27T11:15:17.978Z,1007.64
2024-02-27T11:20:22.046Z,1007.61
2024-02-27T11:25:26.204Z,1007.53
2024-02-27T11:30:30.419Z,1007.31
2024-02-27T11:35:34.507Z,1007.30
2024-02-27T11:40:38.807Z,1007.31
2024-02-27T11:45:42.942Z,1007.33
2024-02-27T11:50:47.010Z,1007.34
2024-02-27T11:55:51.153Z,1007.21
2024-02-27T12:00:55.640Z,1007.28
2024-02-27T12:05:59.497Z,1007.34
2024-02-27T12:11:03.703Z,1007.40
2024-02-27T12:16:05.980Z,1007.38
2024-02-27T12:21:10.108Z,1007.36
2024-02-27T12:26:14.284Z,1007.33
2024-02-27T12:31:18.441Z,1007.32
2024-02-27T12:36:22.585Z,1007.19
2024-02-27T12:41:26.767Z,1007.16
2024-02-27T12:44:33.455Z,1007.11
2024-02-27T12:50:14.905Z,1007.01
2024-02-27T12:55:19.068Z,1007.05
2024-02-27T13:00:23.304Z,1006.94
2024-02-27T13:05:27.854Z,1006.91
2024-02-27T13:10:31.662Z,1006.89
2024-02-27T13:15:35.772Z,1006.85
2024-02-27T13:20:39.933Z,1006.87
2024-02-27T13:25:44.086Z,1006.82
2024-02-27T13:30:48.445Z,1006.76
2024-02-27T13:35:52.413Z,1006.68
2024-02-27T13:40:56.602Z,1006.59
2024-02-27T13:46:00.782Z,1006.55
2024-02-27T13:51:05.123Z,1006.53
2024-02-27T13:56:09.039Z,1006.47
2024-02-27T14:01:13.365Z,1006.32
2024-02-27T14:06:17.468Z,1006.23
2024-02-27T14:11:21.611Z,1006.07
2024-02-27T14:16:25.704Z,1006.07
2024-02-27T14:21:29.916Z,1005.97
2024-02-27T14:26:32.120Z,1006.03
2024-02-27T14:31:36.291Z,1006.03
2024-02-27T14:36:40.503Z,1006.09
2024-02-27T14:41:44.626Z,1006.18
2024-02-27T14:46:48.844Z,1006.12
2024-02-27T14:51:53.014Z,1006.17
2024-02-27T14:56:57.161Z,1006.20
2024-02-27T15:02:04.339Z,1006.17
2024-02-27T15:07:05.513Z,1006.26
2024-02-27T15:12:09.634Z,1006.23
2024-02-27T15:17:13.766Z,1006.26
2024-02-27T15:22:17.907Z,1006.18
2024-02-27T15:27:22.096Z,1006.26
2024-02-27T15:32:26.274Z,1006.38
2024-02-27T15:37:30.405Z,1006.25
2024-02-27T15:42:34.627Z,1006.26
2024-02-27T15:47:38.796Z,1006.34
2024-02-27T15:52:42.883Z,1006.47
2024-02-27T15:57:47.213Z,1006.47
2024-02-27T16:02:51.259Z,1006.46
2024-02-27T16:07:53.542Z,1006.41
2024-02-27T16:12:57.696Z,1006.48
2024-02-27T16:18:02.022Z,1006.50
2024-02-27T16:23:06.042Z,1006.53
2024-02-27T16:28:10.123Z,1006.69
2024-02-27T16:33:14.414Z,1006.61
2024-02-27T16:38:18.495Z,1006.66
2024-02-27T16:43:22.662Z,1006.84
2024-02-27T16:48:26.895Z,1006.77
2024-02-27T16:53:30.969Z,1007.00
2024-02-27T16:58:35.126Z,1007.01
2024-02-27T17:03:39.396Z,1007.02
2024-02-27T17:08:43.436Z,1007.10
2024-02-27T17:13:47.595Z,1007.19
2024-02-27T17:18:51.991Z,1007.20
2024-02-27T17:23:55.934Z,1007.24
2024-02-27T17:29:00.076Z,1007.32
2024-02-27T17:34:04.464Z,1007.36
2024-02-27T17:39:08.469Z,1007.49
2024-02-27T17:49:16.916Z,1007.67
2024-02-27T17:54:19.054Z,1007.73
2024-02-27T17:59:21.338Z,1007.85
2024-02-27T18:04:25.723Z,1007.87
2024-02-27T18:09:29.712Z,1007.94
2024-02-27T18:14:33.816Z,1007.98
2024-02-27T18:19:38.181Z,1008.00
2024-02-27T18:24:42.205Z,1008.09
2024-02-27T18:29:46.377Z,1008.20
2024-02-27T18:34:50.477Z,1008.30
2024-02-27T18:39:54.864Z,1008.39
2024-02-27T18:44:58.786Z,1008.43
2024-02-27T18:50:03.095Z,1008.49
2024-02-27T18:55:07.106Z,1008.44
2024-02-27T19:00:11.302Z,1008.56
2024-02-27T19:05:15.521Z,1008.49
2024-02-27T19:10:19.794Z,1008.41
2024-02-27T19:15:23.826Z,1008.39
2024-02-27T19:20:27.920Z,1008.41
2024-02-27T19:25:32.100Z,1008.38
2024-02-27T19:30:36.309Z,1008.41
2024-02-27T19:35:40.630Z,1008.49
2024-02-27T19:40:42.692Z,1008.44
2024-02-27T19:45:45.130Z,1008.54
2024-02-27T19:50:49.105Z,1008.60
2024-02-27T19:55:53.308Z,1008.68
2024-02-27T20:00:57.523Z,1008.76
2024-02-27T20:06:01.650Z,1008.75
2024-02-27T20:11:05.842Z,1008.77
2024-02-27T20:16:09.971Z,1008.84
2024-02-27T20:21:14.138Z,1008.75
2024-02-27T20:26:18.508Z,1008.84
2024-02-27T20:31:22.450Z,1008.77
2024-02-27T20:36:26.662Z,1008.77
2024-02-27T20:41:30.766Z,1008.84
2024-02-27T20:46:34.955Z,1008.92
2024-02-27T20:51:41.213Z,1008.99
2024-02-27T20:56:43.290Z,1009.08
2024-02-27T21:01:47.531Z,1009.02
2024-02-27T21:06:51.709Z,1009.03
2024-02-27T21:11:56.037Z,1009.10
2024-02-27T21:16:59.933Z,1009.04
2024-02-27T21:22:04.142Z,1009.15
2024-02-27T21:27:06.449Z,1009.15
2024-02-27T21:32:10.559Z,1009.10
2024-02-27T21:37:14.747Z,1009.05
2024-02-27T21:42:18.923Z,1009.03
2024-02-27T21:47:23.081Z,1009.09
2024-02-27T21:52:27.337Z,1009.05
2024-02-27T21:57:31.411Z,1009.21
2024-02-27T22:02:35.544Z,1009.32
2024-02-27T22:07:39.786Z,1009.25
2024-02-27T22:12:43.941Z,1009.36
2024-02-27T22:17:48.077Z,1009.36
2024-02-27T22:22:52.300Z,1009.28
2024-02-27T22:27:56.498Z,1009.24
2024-02-27T22:33:00.641Z,1009.20
2024-02-27T22:38:04.725Z,1009.15
2024-02-27T22:43:08.874Z,1009.20
2024-02-27T22:48:13.278Z,1009.20
2024-02-27T22:53:17.239Z,1009.17
2024-02-27T22:58:21.376Z,1009.05
2024-02-27T23:03:25.552Z,1009.02
2024-02-27T23:08:27.778Z,1009.14
2024-02-27T23:13:31.973Z,1009.28
2024-02-27T23:18:36.162Z,1009.18
2024-02-27T23:23:40.315Z,1009.21
2024-02-27T23:28:44.493Z,1009.35
2024-02-27T23:33:48.758Z,1009.32
2024-02-27T23:38:52.811Z,1009.29
2024-02-27T23:43:56.971Z,1009.23
2024-02-27T23:49:01.202Z,1009.31
2024-02-27T23:54:05.312Z,1009.40
2024-02-27T23:59:09.460Z,1009.32
